Time;durP1;ratioP1;P1;durP2;ratioP2;P2;SDS_P1;SDS_P2;PMS_P1;PMS_P2;Temp;Humidity;BMP_temperature;BMP_pressure;BME280_temperature;BME280_humidity;BME280_pressure;Samples;Min_cycle;Max_cycle;Signal;HPM_P1;HPM_P2
2022/10/30 00:01:32;;;;;;;18.47;16.60;;;14.80;99.90;;;;;;4918922;29;20878;-79
2022/10/30 00:04:00;;;;;;;18.93;16.73;;;14.70;99.90;;;;;;4919019;29;21027;-79
2022/10/30 00:06:28;;;;;;;20.50;18.13;;;14.80;99.90;;;;;;4919984;29;20460;-79
2022/10/30 00:08:56;;;;;;;18.70;16.80;;;14.80;99.90;;;;;;4919673;29;20916;-79
2022/10/30 00:11:24;;;;;;;22.07;17.57;;;14.70;99.90;;;;;;4918057;29;20460;-79
2022/10/30 00:13:52;;;;;;;17.70;15.90;;;14.70;99.90;;;;;;4919228;29;20440;-79
2022/10/30 00:16:22;;;;;;;18.33;16.47;;;14.70;99.90;;;;;;4917945;29;20441;-79
2022/10/30 00:18:50;;;;;;;18.77;16.83;;;14.70;99.90;;;;;;4919171;29;20497;-79
2022/10/30 00:21:19;;;;;;;16.70;14.97;;;14.70;99.90;;;;;;4919022;29;20658;-79
2022/10/30 00:23:48;;;;;;;21.03;16.37;;;14.70;99.90;;;;;;4917794;29;20950;-79
2022/10/30 00:26:17;;;;;;;18.83;15.97;;;14.70;99.90;;;;;;4917790;29;20453;-79
2022/10/30 00:28:49;;;;;;;16.80;14.97;;;14.60;99.90;;;;;;4919237;29;20471;-79
2022/10/30 00:31:18;;;;;;;22.50;16.63;;;14.60;99.90;;;;;;4917613;29;20609;-79
2022/10/30 00:33:50;;;;;;;19.47;16.53;;;14.60;99.90;;;;;;4917592;29;20841;-79
2022/10/30 00:36:19;;;;;;;18.07;15.97;;;14.60;99.90;;;;;;4917595;29;20452;-79
2022/10/30 00:38:47;;;;;;;20.33;15.20;;;14.60;99.90;;;;;;4918757;29;20444;-79
2022/10/30 00:41:16;;;;;;;17.93;14.90;;;14.50;99.90;;;;;;4917456;29;20465;-79
2022/10/30 00:43:44;;;;;;;15.60;14.00;;;14.50;99.90;;;;;;4918741;29;20525;-79
2022/10/30 00:46:18;;;;;;;21.23;14.30;;;14.50;99.90;;;;;;4917421;29;20448;-79
2022/10/30 00:48:52;;;;;;;15.40;13.73;;;14.50;99.90;;;;;;4918832;29;20480;-79
2022/10/30 00:51:21;;;;;;;15.57;13.60;;;14.50;99.90;;;;;;4917262;29;20567;-79
2022/10/30 00:53:50;;;;;;;15.00;13.50;;;14.50;99.90;;;;;;4917309;29;20451;-79
2022/10/30 00:56:22;;;;;;;18.43;14.47;;;14.40;99.90;;;;;;4917107;29;20463;-78
2022/10/30 00:58:57;;;;;;;17.27;14.30;;;14.40;99.90;;;;;;4917197;29;20472;-79
2022/10/30 01:01:28;;;;;;;18.10;14.67;;;14.40;99.90;;;;;;4917420;29;20816;-79
2022/10/30 01:04:01;;;;;;;15.77;14.13;;;14.40;99.90;;;;;;4917130;29;20951;-78
2022/10/30 01:06:32;;;;;;;18.17;13.90;;;14.40;99.90;;;;;;4917053;29;20445;-79
2022/10/30 01:09:01;;;;;;;15.50;13.90;;;14.30;99.90;;;;;;4917076;29;20451;-78
2022/10/30 01:11:29;;;;;;;21.37;16.63;;;14.30;99.90;;;;;;4916848;29;20475;-79
2022/10/30 01:14:01;;;;;;;18.07;16.17;;;14.30;99.90;;;;;;4916071;29;20457;-79
2022/10/30 01:16:45;;;;;;;16.07;14.33;;;14.20;99.90;;;;;;4916884;29;20941;-78
2022/10/30 01:19:24;;;;;;;16.03;14.33;;;14.20;99.90;;;;;;4916893;29;20447;-79
2022/10/30 01:22:11;;;;;;;16.60;14.23;;;14.20;99.90;;;;;;4916731;29;20508;-79
2022/10/30 01:24:49;;;;;;;16.47;14.87;;;14.20;99.90;;;;;;4916817;29;20448;-79
2022/10/30 01:27:32;;;;;;;16.90;15.07;;;14.20;99.90;;;;;;4916768;29;20452;-79
2022/10/30 01:30:20;;;;;;;16.40;14.47;;;14.10;99.90;;;;;;4916920;29;21008;-78
2022/10/30 01:33:02;;;;;;;15.30;13.70;;;14.10;99.90;;;;;;4916647;29;20451;-79
2022/10/30 01:35:37;;;;;;;14.47;13.03;;;14.10;99.90;;;;;;4916699;29;20447;-78
2022/10/30 01:38:10;;;;;;;18.60;14.00;;;14.10;99.90;;;;;;4916529;29;20567;-79
2022/10/30 01:40:38;;;;;;;19.43;14.67;;;14.10;99.90;;;;;;4916385;29;20444;-79
2022/10/30 01:43:06;;;;;;;16.73;14.40;;;14.10;99.90;;;;;;4916496;29;20512;-79
2022/10/30 01:46:00;;;;;;;21.40;14.57;;;14.10;99.90;;;;;;4917899;29;20444;-79
2022/10/30 01:48:49;;;;;;;14.90;13.40;;;14.00;99.90;;;;;;4915302;29;20532;-78
2022/10/30 01:51:31;;;;;;;16.40;13.43;;;14.00;99.90;;;;;;4916342;29;20480;-78
2022/10/30 01:54:10;;;;;;;15.10;13.50;;;14.00;99.90;;;;;;4916357;29;20526;-79
2022/10/30 01:56:45;;;;;;;15.47;14.00;;;14.00;99.90;;;;;;4916107;29;20548;-79
2022/10/30 01:59:18;;;;;;;14.77;13.27;;;14.00;99.90;;;;;;4916154;29;20464;-79
2022/10/30 02:01:46;;;;;;;16.17;14.57;;;14.00;99.90;;;;;;4916117;29;20574;-79
2022/10/30 02:04:15;;;;;;;17.70;14.07;;;14.00;99.90;;;;;;4916157;29;20531;-79
2022/10/30 02:06:45;;;;;;;15.33;12.33;;;14.00;99.90;;;;;;4916055;29;20449;-79
2022/10/30 02:09:16;;;;;;;19.23;13.97;;;14.00;99.90;;;;;;4916069;29;20974;-79
2022/10/30 02:11:50;;;;;;;14.10;12.70;;;14.00;99.90;;;;;;4916059;29;20941;-79
2022/10/30 02:14:23;;;;;;;14.07;12.53;;;13.90;99.90;;;;;;4915906;29;20508;-79
2022/10/30 02:16:54;;;;;;;14.47;13.00;;;13.90;99.90;;;;;;4916080;29;20464;-79
2022/10/30 02:19:22;;;;;;;17.47;13.40;;;13.90;99.90;;;;;;4915959;29;20503;-79
2022/10/30 02:21:52;;;;;;;15.13;11.70;;;13.90;99.90;;;;;;4915830;29;20570;-79
2022/10/30 02:24:21;;;;;;;14.60;13.00;;;13.90;99.90;;;;;;4915904;29;20472;-79
2022/10/30 02:26:49;;;;;;;15.33;13.30;;;13.90;99.90;;;;;;4915770;29;20459;-78
2022/10/30 02:29:19;;;;;;;15.47;13.53;;;13.90;99.90;;;;;;4915965;29;20487;-79
2022/10/30 02:31:48;;;;;;;16.40;14.30;;;13.90;99.90;;;;;;4915787;29;20560;-79
2022/10/30 02:34:16;;;;;;;16.53;14.23;;;13.90;99.90;;;;;;4915863;29;20464;-79
2022/10/30 02:36:44;;;;;;;14.73;13.03;;;13.90;99.90;;;;;;4916083;29;20475;-78
2022/10/30 02:39:14;;;;;;;15.70;14.17;;;13.90;99.90;;;;;;4915827;29;20479;-79
2022/10/30 02:41:42;;;;;;;15.13;13.57;;;13.90;99.90;;;;;;4916905;29;20519;-79
2022/10/30 02:44:12;;;;;;;16.80;13.00;;;13.90;99.90;;;;;;4916939;29;21021;-79
2022/10/30 02:46:40;;;;;;;13.53;12.27;;;13.90;99.90;;;;;;4915651;29;20451;-79
2022/10/30 02:49:08;;;;;;;17.10;12.30;;;13.90;99.90;;;;;;4915560;29;20834;-79
2022/10/30 02:51:36;;;;;;;13.87;12.37;;;13.90;99.90;;;;;;4915570;29;20468;-79
2022/10/30 02:54:05;;;;;;;14.00;12.50;;;13.90;99.90;;;;;;4915666;29;20471;-79
2022/10/30 02:56:34;;;;;;;14.20;12.70;;;13.90;99.90;;;;;;4915517;29;20811;-78
2022/10/30 02:59:02;;;;;;;16.40;12.67;;;13.90;99.90;;;;;;4915558;29;20499;-79
2022/10/30 03:01:31;;;;;;;14.17;12.63;;;13.90;99.90;;;;;;4915426;29;20472;-79
2022/10/30 03:04:01;;;;;;;15.17;13.07;;;13.90;99.90;;;;;;4916365;29;20452;-79
2022/10/30 03:06:29;;;;;;;13.73;12.30;;;13.90;99.90;;;;;;4915474;29;20453;-78
2022/10/30 03:08:58;;;;;;;15.13;12.87;;;13.90;99.90;;;;;;4915673;29;20984;-79
2022/10/30 03:11:27;;;;;;;14.20;12.70;;;13.90;99.90;;;;;;4915383;29;21012;-79
2022/10/30 03:13:57;;;;;;;13.37;11.97;;;13.90;99.90;;;;;;4915456;29;20487;-79
2022/10/30 03:16:28;;;;;;;12.77;11.40;;;13.90;99.90;;;;;;4915450;29;20540;-78
2022/10/30 03:18:57;;;;;;;14.73;13.20;;;13.80;99.90;;;;;;4915447;29;20495;-78
2022/10/30 03:21:27;;;;;;;13.50;12.30;;;13.90;99.90;;;;;;4915384;29;20476;-79
2022/10/30 03:23:56;;;;;;;13.43;12.03;;;13.80;99.90;;;;;;4915553;29;20505;-79
2022/10/30 03:26:24;;;;;;;15.70;12.87;;;13.80;99.90;;;;;;4915304;29;21006;-79
2022/10/30 03:29:00;;;;;;;13.60;12.17;;;13.90;99.90;;;;;;4915275;29;20965;-79
2022/10/30 03:31:30;;;;;;;13.33;11.80;;;13.90;99.90;;;;;;4915078;29;20498;-79
2022/10/30 03:34:15;;;;;;;14.70;12.30;;;13.90;99.90;;;;;;4915623;29;20869;-79
2022/10/30 03:36:43;;;;;;;15.33;12.90;;;13.90;99.90;;;;;;4915340;29;20504;-79
2022/10/30 03:39:12;;;;;;;15.10;13.50;;;13.80;99.90;;;;;;4919553;29;20523;-78
2022/10/30 03:41:43;;;;;;;11.77;10.57;;;13.80;99.90;;;;;;4919067;29;20989;-79
2022/10/30 03:44:13;;;;;;;13.77;12.37;;;13.80;99.90;;;;;;4918894;29;20456;-79
2022/10/30 03:46:41;;;;;;;14.50;12.90;;;13.90;99.90;;;;;;4918608;29;20456;-79
2022/10/30 03:49:31;;;;;;;13.40;11.80;;;13.80;99.90;;;;;;4919314;29;20546;-79
2022/10/30 03:52:02;;;;;;;17.80;13.23;;;13.80;99.90;;;;;;4918468;29;20480;-78
2022/10/30 03:54:31;;;;;;;19.03;12.80;;;13.80;99.90;;;;;;4918287;29;20809;-79
2022/10/30 03:56:59;;;;;;;13.83;11.73;;;13.80;99.90;;;;;;4920140;29;20421;-79
2022/10/30 03:59:34;;;;;;;14.67;13.13;;;13.80;99.90;;;;;;4918851;29;20479;-79
2022/10/30 04:02:27;;;;;;;14.23;12.73;;;13.80;99.90;;;;;;4918140;29;20845;-79
2022/10/30 04:04:55;;;;;;;13.53;11.60;;;13.80;99.90;;;;;;4918269;29;20544;-78
2022/10/30 04:07:24;;;;;;;14.63;12.70;;;13.80;99.90;;;;;;4918188;29;20503;-78
2022/10/30 04:09:52;;;;;;;18.63;14.23;;;13.80;99.90;;;;;;4918432;29;20958;-79
2022/10/30 04:12:20;;;;;;;16.80;12.70;;;13.80;99.90;;;;;;4917964;29;20560;-79
2022/10/30 04:14:52;;;;;;;14.50;12.83;;;13.70;99.90;;;;;;4918137;29;20468;-79
2022/10/30 04:17:20;;;;;;;14.00;12.60;;;13.80;99.90;;;;;;4918109;29;20534;-79
2022/10/30 04:19:48;;;;;;;18.57;12.90;;;13.70;99.90;;;;;;4917975;29;20480;-79
2022/10/30 04:22:17;;;;;;;15.17;13.57;;;13.70;99.90;;;;;;4917957;29;20568;-79
2022/10/30 04:24:47;;;;;;;19.30;13.80;;;13.70;99.90;;;;;;4917954;29;20535;-79
2022/10/30 04:27:16;;;;;;;13.73;12.27;;;13.70;99.90;;;;;;4919242;29;20436;-79
2022/10/30 04:29:45;;;;;;;16.70;13.23;;;13.70;99.90;;;;;;4917829;29;20440;-78
2022/10/30 04:32:15;;;;;;;16.13;13.70;;;13.70;99.90;;;;;;4917764;29;20472;-79
2022/10/30 04:34:43;;;;;;;15.30;12.93;;;13.70;99.90;;;;;;4917720;29;20588;-78
2022/10/30 04:37:11;;;;;;;14.50;12.50;;;13.70;99.90;;;;;;4917694;29;20452;-79
2022/10/30 04:39:40;;;;;;;16.60;13.33;;;13.60;99.90;;;;;;4917684;29;20472;-79
2022/10/30 04:42:18;;;;;;;15.30;12.43;;;13.60;99.90;;;;;;4917551;29;20482;-78
2022/10/30 04:44:46;;;;;;;13.60;12.30;;;13.60;99.90;;;;;;4917542;29;20524;-79
2022/10/30 04:47:16;;;;;;;14.07;12.63;;;13.60;99.90;;;;;;4917529;29;21083;-78
2022/10/30 04:49:44;;;;;;;15.43;12.90;;;13.60;99.90;;;;;;4917575;29;20451;-79
2022/10/30 04:52:12;;;;;;;13.20;11.83;;;13.50;99.90;;;;;;4917281;29;20475;-79
2022/10/30 04:54:41;;;;;;;14.70;12.20;;;13.50;99.90;;;;;;4917180;29;20459;-79
2022/10/30 04:57:10;;;;;;;15.93;13.50;;;13.50;99.90;;;;;;4917312;29;20547;-78
2022/10/30 04:59:41;;;;;;;15.47;13.63;;;13.40;99.90;;;;;;4917475;29;20527;-78
2022/10/30 05:02:09;;;;;;;14.60;12.93;;;13.40;99.90;;;;;;4917140;29;20480;-79
2022/10/30 05:04:40;;;;;;;16.47;13.17;;;13.40;99.90;;;;;;4917465;29;20452;-79
2022/10/30 05:07:08;;;;;;;15.17;13.63;;;13.40;99.90;;;;;;4917023;29;20460;-78
2022/10/30 05:09:37;;;;;;;13.83;12.47;;;13.40;99.90;;;;;;4918534;29;20451;-78
2022/10/30 05:12:05;;;;;;;19.50;12.63;;;13.30;99.90;;;;;;4916949;29;20476;-78
2022/10/30 05:14:42;;;;;;;14.73;12.63;;;13.30;99.90;;;;;;4917246;29;20456;-78
2022/10/30 05:17:10;;;;;;;14.23;12.67;;;13.30;99.90;;;;;;4916995;29;20461;-78
2022/10/30 05:19:40;;;;;;;14.37;12.97;;;13.30;99.90;;;;;;4916881;29;20476;-78
2022/10/30 05:22:09;;;;;;;16.60;13.87;;;13.30;99.90;;;;;;4916733;29;20464;-78
2022/10/30 05:24:37;;;;;;;19.70;14.57;;;13.20;99.90;;;;;;4916851;29;20452;-78
2022/10/30 05:27:05;;;;;;;16.60;14.87;;;13.20;99.90;;;;;;4916735;29;20472;-78
2022/10/30 05:29:35;;;;;;;14.30;12.87;;;13.20;99.90;;;;;;4916687;29;20508;-78
2022/10/30 05:32:04;;;;;;;14.33;12.43;;;13.20;99.90;;;;;;4917875;29;20833;-78
2022/10/30 05:34:42;;;;;;;14.10;12.70;;;13.20;99.90;;;;;;4917301;29;20823;-78
2022/10/30 05:37:11;;;;;;;14.17;12.67;;;13.10;99.90;;;;;;4916674;29;20449;-78
2022/10/30 05:39:41;;;;;;;14.20;12.90;;;13.10;99.90;;;;;;4916489;29;20476;-78
2022/10/30 05:42:19;;;;;;;18.43;15.50;;;13.10;99.90;;;;;;4916493;29;20480;-78
2022/10/30 05:44:48;;;;;;;14.80;13.33;;;13.10;99.90;;;;;;4916456;29;20456;-78
2022/10/30 05:47:29;;;;;;;14.90;12.47;;;13.10;99.90;;;;;;4916478;29;20831;-78
2022/10/30 05:49:59;;;;;;;15.80;14.10;;;13.00;99.90;;;;;;4916356;29;20502;-78
2022/10/30 05:52:28;;;;;;;18.70;15.13;;;13.00;99.90;;;;;;4916315;29;21061;-78
2022/10/30 05:54:58;;;;;;;17.20;14.30;;;13.00;99.90;;;;;;4917126;29;20859;-78
2022/10/30 05:57:46;;;;;;;16.63;15.03;;;13.00;99.90;;;;;;4917364;29;20456;-78
2022/10/30 06:00:16;;;;;;;15.90;14.30;;;13.00;99.90;;;;;;4915886;29;20852;-78
2022/10/30 06:02:44;;;;;;;19.17;14.60;;;13.00;99.90;;;;;;4917887;29;20511;-78
2022/10/30 06:05:16;;;;;;;18.23;16.53;;;13.00;99.90;;;;;;4917017;29;20440;-78
2022/10/30 06:07:44;;;;;;;21.23;19.37;;;12.90;99.90;;;;;;4916122;29;20970;-78
2022/10/30 06:10:12;;;;;;;21.53;19.60;;;12.90;99.90;;;;;;4916129;29;20447;-78
2022/10/30 06:12:52;;;;;;;16.63;14.90;;;12.90;99.90;;;;;;4916175;29;20567;-78
2022/10/30 06:15:33;;;;;;;17.10;13.73;;;12.90;99.90;;;;;;4916116;29;20467;-78
2022/10/30 06:18:02;;;;;;;15.60;12.97;;;12.90;99.90;;;;;;4915963;29;20862;-78
2022/10/30 06:20:41;;;;;;;14.40;13.00;;;12.80;99.90;;;;;;4915902;29;20989;-78
2022/10/30 06:23:27;;;;;;;17.50;15.23;;;12.80;99.90;;;;;;4917706;29;20440;-78
2022/10/30 06:26:02;;;;;;;17.43;14.73;;;12.80;99.90;;;;;;4915955;29;20507;-78
2022/10/30 06:28:34;;;;;;;16.20;14.23;;;12.80;99.90;;;;;;4915949;29;20453;-78
2022/10/30 06:31:02;;;;;;;17.63;14.03;;;12.80;99.90;;;;;;4915900;29;20559;-78
2022/10/30 06:33:31;;;;;;;15.70;14.07;;;12.70;99.90;;;;;;4916050;29;20480;-78
2022/10/30 06:36:02;;;;;;;16.60;14.60;;;12.70;99.90;;;;;;4915927;29;20504;-78
2022/10/30 06:38:30;;;;;;;15.30;13.70;;;12.70;99.90;;;;;;4915766;29;20452;-78
2022/10/30 06:40:59;;;;;;;16.60;14.40;;;12.70;99.90;;;;;;4915575;29;20519;-78
2022/10/30 06:44:06;;;;;;;16.43;14.30;;;12.80;99.90;;;;;;4933902;29;20911;-78
2022/10/30 06:46:36;;;;;;;17.13;15.40;;;12.70;99.90;;;;;;4918050;29;20452;-78
2022/10/30 06:49:04;;;;;;;18.43;15.37;;;12.70;99.90;;;;;;4915494;29;20456;-78
2022/10/30 06:51:34;;;;;;;16.27;14.27;;;12.70;99.90;;;;;;4915550;29;20548;-78
2022/10/30 06:54:03;;;;;;;21.33;14.50;;;12.70;99.90;;;;;;4916526;29;20790;-78
2022/10/30 06:56:40;;;;;;;15.27;13.70;;;12.70;99.90;;;;;;4916858;29;20452;-78
2022/10/30 06:59:27;;;;;;;16.83;15.00;;;12.70;99.90;;;;;;4917108;29;20424;-78
2022/10/30 07:02:34;;;;;;;15.60;14.10;;;12.70;99.90;;;;;;4921652;29;20819;-78
2022/10/30 07:05:07;;;;;;;19.70;15.90;;;12.70;99.90;;;;;;4915941;29;20898;-78
2022/10/30 07:07:37;;;;;;;23.83;17.20;;;12.70;99.90;;;;;;4915591;29;20457;-78
2022/10/30 07:10:07;;;;;;;16.03;14.23;;;12.70;99.90;;;;;;4915811;29;20958;-78
2022/10/30 07:12:58;;;;;;;18.80;16.80;;;12.70;99.90;;;;;;4918970;29;20460;-78
2022/10/30 07:15:45;;;;;;;17.17;15.30;;;12.70;99.90;;;;;;4920973;29;20431;-78
2022/10/30 07:18:22;;;;;;;17.53;15.83;;;12.80;99.90;;;;;;4919819;29;20552;-78
2022/10/30 07:20:55;;;;;;;19.37;17.10;;;12.80;99.90;;;;;;4918892;29;20495;-78
2022/10/30 07:23:26;;;;;;;17.97;16.17;;;12.80;99.90;;;;;;4919020;29;20543;-78
2022/10/30 07:26:01;;;;;;;19.53;17.53;;;12.80;99.90;;;;;;4919570;29;20536;-78
2022/10/30 07:28:37;;;;;;;19.60;16.30;;;12.90;99.90;;;;;;4920080;29;20428;-78
2022/10/30 07:31:19;;;;;;;20.10;18.00;;;12.90;99.90;;;;;;4918765;29;20487;-78
2022/10/30 07:34:27;;;;;;;22.20;19.80;;;12.90;99.90;;;;;;4918768;29;20455;-78
2022/10/30 07:37:05;;;;;;;24.67;20.30;;;12.90;99.90;;;;;;4918878;29;20540;-78
2022/10/30 07:39:57;;;;;;;25.00;21.50;;;13.00;99.90;;;;;;4921833;29;20484;-78
2022/10/30 07:42:43;;;;;;;26.90;23.10;;;13.00;99.90;;;;;;4918579;29;21010;-78
2022/10/30 07:45:31;;;;;;;22.83;20.17;;;13.10;99.90;;;;;;4920021;29;20484;-78
2022/10/30 07:48:30;;;;;;;24.50;21.90;;;13.10;99.90;;;;;;4918533;29;20463;-78
2022/10/30 07:51:07;;;;;;;27.90;25.10;;;13.20;99.90;;;;;;4918340;29;20519;-78
2022/10/30 07:53:35;;;;;;;27.37;24.60;;;13.20;99.90;;;;;;4918349;29;20448;-78
2022/10/30 07:56:07;;;;;;;35.57;32.07;;;13.20;99.90;;;;;;4918271;29;20538;-78
2022/10/30 07:59:10;;;;;;;29.37;26.23;;;13.30;99.90;;;;;;4925772;29;21008;-78
2022/10/30 08:01:59;;;;;;;34.03;30.67;;;13.30;99.90;;;;;;4919654;29;20582;-78
2022/10/30 08:04:40;;;;;;;31.30;27.83;;;13.40;99.90;;;;;;4918119;29;20463;-78
2022/10/30 08:07:30;;;;;;;25.93;23.20;;;13.50;99.90;;;;;;4919135;29;20452;-78
2022/10/30 08:09:58;;;;;;;23.20;20.77;;;13.50;99.90;;;;;;4917961;29;20946;-79
2022/10/30 08:12:28;;;;;;;25.60;22.77;;;13.60;99.90;;;;;;4917958;29;20464;-78
2022/10/30 08:14:56;;;;;;;24.97;22.20;;;13.60;99.90;;;;;;4919200;29;20946;-78
2022/10/30 08:17:25;;;;;;;26.77;21.90;;;13.70;99.90;;;;;;4917865;29;20527;-79
2022/10/30 08:19:53;;;;;;;21.40;18.70;;;13.70;99.90;;;;;;4917772;29;20854;-78
2022/10/30 08:22:21;;;;;;;23.03;20.20;;;13.80;99.90;;;;;;4917514;29;20865;-79
2022/10/30 08:24:58;;;;;;;20.67;18.30;;;13.80;99.90;;;;;;4917806;29;20978;-79
2022/10/30 08:27:29;;;;;;;28.60;21.17;;;13.90;99.90;;;;;;4917583;29;20488;-79
2022/10/30 08:29:57;;;;;;;23.33;19.40;;;14.00;99.90;;;;;;4917691;29;20480;-79
2022/10/30 08:32:26;;;;;;;25.37;22.87;;;14.10;99.90;;;;;;4917478;29;20552;-78
2022/10/30 08:35:27;;;;;;;21.97;19.57;;;14.10;99.90;;;;;;4927794;29;20440;-79
2022/10/30 08:37:56;;;;;;;20.30;17.63;;;14.20;99.90;;;;;;4917385;29;20463;-78
2022/10/30 08:40:26;;;;;;;20.77;18.60;;;14.20;99.90;;;;;;4917427;29;20448;-79
2022/10/30 08:43:02;;;;;;;19.37;17.47;;;14.30;99.90;;;;;;4917430;29;20459;-79
2022/10/30 08:45:32;;;;;;;19.33;17.30;;;14.40;99.90;;;;;;4917636;29;20456;-79
2022/10/30 08:48:20;;;;;;;19.67;17.27;;;14.40;99.90;;;;;;4917386;29;20822;-79
2022/10/30 08:50:50;;;;;;;22.60;18.43;;;14.50;99.90;;;;;;4917236;29;20472;-79
2022/10/30 08:53:26;;;;;;;22.33;17.40;;;14.60;99.90;;;;;;4917945;29;20445;-79
2022/10/30 08:55:55;;;;;;;21.80;19.57;;;14.60;99.90;;;;;;4917100;29;20456;-79
2022/10/30 08:58:30;;;;;;;21.23;18.37;;;14.80;99.90;;;;;;4917072;29;20475;-79
2022/10/30 09:00:59;;;;;;;21.37;19.17;;;14.80;99.90;;;;;;4916962;29;20480;-79
2022/10/30 09:03:47;;;;;;;26.00;21.00;;;14.90;99.90;;;;;;4918324;29;21050;-78
2022/10/30 09:06:44;;;;;;;24.17;18.77;;;14.90;99.90;;;;;;4918158;29;20445;-79
2022/10/30 09:09:50;;;;;;;22.00;18.10;;;15.00;99.90;;;;;;4917921;29;20452;-79
2022/10/30 09:12:18;;;;;;;23.43;18.60;;;15.10;99.90;;;;;;4916733;29;20563;-79
2022/10/30 09:14:48;;;;;;;25.37;19.07;;;15.20;99.90;;;;;;4916869;29;20452;-79
2022/10/30 09:17:17;;;;;;;23.80;19.50;;;15.30;99.90;;;;;;4916767;29;20444;-79
2022/10/30 09:19:47;;;;;;;27.40;24.50;;;15.40;99.90;;;;;;4916664;29;20456;-79
2022/10/30 09:22:21;;;;;;;21.47;19.17;;;15.40;99.90;;;;;;4917069;29;20487;-79
2022/10/30 09:24:50;;;;;;;19.77;17.77;;;15.50;99.90;;;;;;4916616;29;20981;-79
2022/10/30 09:27:41;;;;;;;20.10;18.10;;;15.50;99.90;;;;;;4917818;29;20449;-78
2022/10/30 09:30:14;;;;;;;21.63;17.37;;;15.60;99.90;;;;;;4917258;29;20444;-79
2022/10/30 09:32:45;;;;;;;25.97;21.73;;;15.70;99.90;;;;;;4916962;29;20942;-79
2022/10/30 09:35:21;;;;;;;19.90;17.80;;;15.80;99.90;;;;;;4917581;29;20428;-78
2022/10/30 09:37:50;;;;;;;22.70;17.67;;;15.80;99.90;;;;;;4917203;29;20461;-79
2022/10/30 09:40:23;;;;;;;21.33;17.20;;;15.90;99.90;;;;;;4917086;29;20453;-79
2022/10/30 09:42:54;;;;;;;20.33;15.97;;;16.00;99.90;;;;;;4917375;29;20897;-78
2022/10/30 09:46:01;;;;;;;20.10;16.57;;;16.00;99.90;;;;;;4918267;29;20979;-79
2022/10/30 09:48:52;;;;;;;22.00;17.20;;;16.10;99.90;;;;;;4918356;29;20449;-79
2022/10/30 09:51:43;;;;;;;22.60;17.17;;;16.20;99.90;;;;;;4918799;29;20837;-79
2022/10/30 09:54:22;;;;;;;23.30;16.90;;;16.30;99.90;;;;;;4917456;29;20460;-79
2022/10/30 09:57:02;;;;;;;18.80;16.30;;;16.30;99.90;;;;;;4917576;29;20825;-79
2022/10/30 09:59:40;;;;;;;20.67;16.20;;;16.40;99.90;;;;;;4920022;29;20516;-79
2022/10/30 10:02:24;;;;;;;19.97;16.80;;;16.50;99.90;;;;;;4918452;29;21049;-79
2022/10/30 10:04:58;;;;;;;22.30;16.70;;;16.60;99.90;;;;;;4920775;29;20529;-79
2022/10/30 10:08:03;;;;;;;21.07;16.37;;;16.60;99.90;;;;;;4929176;29;20419;-79
2022/10/30 10:10:52;;;;;;;20.43;15.70;;;16.70;99.90;;;;;;4918197;29;20495;-79
2022/10/30 10:13:31;;;;;;;19.00;16.97;;;16.80;99.90;;;;;;4920157;29;20445;-79
2022/10/30 10:16:05;;;;;;;19.97;15.70;;;16.90;99.90;;;;;;4922760;29;20424;-80
2022/10/30 10:18:43;;;;;;;21.30;17.53;;;17.00;99.90;;;;;;4921266;29;20479;-79
2022/10/30 10:21:21;;;;;;;23.60;16.20;;;17.00;99.90;;;;;;4919523;29;20982;-79
2022/10/30 10:23:51;;;;;;;19.67;16.17;;;17.10;99.90;;;;;;4920910;29;20916;-79
2022/10/30 10:26:31;;;;;;;17.73;14.90;;;17.20;99.90;;;;;;4919853;29;20555;-80
2022/10/30 10:29:16;;;;;;;21.40;15.57;;;17.20;99.90;;;;;;4921287;29;20427;-79
2022/10/30 10:31:51;;;;;;;18.43;16.43;;;17.30;99.90;;;;;;4919086;29;20800;-79
2022/10/30 10:34:35;;;;;;;19.50;14.73;;;17.40;99.90;;;;;;4919186;29;20514;-79
2022/10/30 10:37:13;;;;;;;22.00;16.10;;;17.50;99.90;;;;;;4920500;29;20411;-80
2022/10/30 10:39:55;;;;;;;14.63;13.10;;;17.50;99.90;;;;;;4919592;29;20463;-79
2022/10/30 10:42:32;;;;;;;22.90;14.30;;;17.60;99.90;;;;;;4919699;29;20455;-80
2022/10/30 10:45:18;;;;;;;16.20;13.83;;;17.70;99.90;;;;;;4919620;29;20462;-79
2022/10/30 10:48:07;;;;;;;18.17;14.23;;;17.80;99.90;;;;;;4924083;29;20529;-79
2022/10/30 10:50:45;;;;;;;15.43;12.50;;;17.90;99.90;;;;;;4923026;29;20453;-79
2022/10/30 10:53:19;;;;;;;16.07;14.40;;;18.00;99.90;;;;;;4924637;29;20428;-80
2022/10/30 10:55:52;;;;;;;18.07;14.17;;;18.00;99.90;;;;;;4923232;29;20905;-79
2022/10/30 10:58:27;;;;;;;19.83;13.87;;;18.10;99.90;;;;;;4921303;29;20427;-79
2022/10/30 11:00:57;;;;;;;17.47;13.43;;;18.20;99.90;;;;;;4921170;29;20486;-79
2022/10/30 11:03:45;;;;;;;19.20;12.60;;;18.20;99.90;;;;;;4922819;29;20474;-79
2022/10/30 11:06:22;;;;;;;17.23;12.60;;;18.30;99.90;;;;;;4921407;29;20971;-79
2022/10/30 11:08:53;;;;;;;18.20;12.90;;;18.30;99.90;;;;;;4921753;29;20456;-79
2022/10/30 11:11:21;;;;;;;21.03;12.80;;;18.40;99.90;;;;;;4921503;29;20553;-79
2022/10/30 11:13:50;;;;;;;18.27;12.47;;;18.50;99.90;;;;;;4923216;29;20513;-79
2022/10/30 11:16:27;;;;;;;14.67;11.80;;;18.50;99.90;;;;;;4922859;29;20470;-79
2022/10/30 11:18:58;;;;;;;21.30;16.50;;;18.50;99.90;;;;;;4921529;29;20433;-79
2022/10/30 11:21:30;;;;;;;16.53;12.53;;;18.60;99.90;;;;;;4921301;29;20457;-79
2022/10/30 11:24:01;;;;;;;17.03;13.53;;;18.60;99.90;;;;;;4921286;29;20487;-79
2022/10/30 11:26:34;;;;;;;15.80;14.10;;;18.70;99.90;;;;;;4921704;29;20834;-80
2022/10/30 11:29:06;;;;;;;24.23;21.70;;;18.80;99.90;;;;;;4921713;29;20889;-79
2022/10/30 11:31:38;;;;;;;27.30;24.60;;;18.80;99.90;;;;;;4922610;29;20451;-80
2022/10/30 11:34:24;;;;;;;16.70;15.10;;;18.90;99.90;;;;;;4921386;29;20452;-79
2022/10/30 11:36:54;;;;;;;19.03;13.33;;;18.90;99.90;;;;;;4921937;29;20500;-80
2022/10/30 11:39:24;;;;;;;20.20;13.40;;;18.90;99.90;;;;;;4923159;29;20415;-80
2022/10/30 11:41:58;;;;;;;21.90;13.67;;;19.00;99.90;;;;;;4922112;29;20445;-79
2022/10/30 11:44:33;;;;;;;14.90;11.70;;;19.00;99.90;;;;;;4921762;29;20806;-79
2022/10/30 11:47:02;;;;;;;14.23;10.67;;;19.10;99.90;;;;;;4922201;29;20487;-79
2022/10/30 11:49:45;;;;;;;15.53;12.60;;;19.10;99.90;;;;;;4920878;29;20825;-79
2022/10/30 11:52:17;;;;;;;13.50;11.50;;;19.20;99.90;;;;;;4921979;29;20471;-79
2022/10/30 11:54:48;;;;;;;15.57;11.80;;;19.20;99.90;;;;;;4922182;29;20427;-80
2022/10/30 11:57:23;;;;;;;18.87;12.03;;;19.20;99.90;;;;;;4922690;29;20428;-79
2022/10/30 11:59:54;;;;;;;13.70;11.37;;;19.30;99.90;;;;;;4922211;29;20436;-80
2022/10/30 12:02:29;;;;;;;15.80;13.50;;;19.30;99.90;;;;;;4920782;29;20479;-79
2022/10/30 12:05:02;;;;;;;17.17;11.63;;;19.40;99.90;;;;;;4921445;29;20444;-79
2022/10/30 12:07:33;;;;;;;17.50;12.90;;;19.40;99.90;;;;;;4921442;29;20500;-79
2022/10/30 12:10:03;;;;;;;18.27;11.77;;;19.50;99.90;;;;;;4920524;29;20871;-80
2022/10/30 12:12:36;;;;;;;19.80;12.63;;;19.50;99.90;;;;;;4920176;29;20997;-79
2022/10/30 12:15:18;;;;;;;20.87;12.70;;;19.60;99.90;;;;;;4921999;29;20439;-80
2022/10/30 12:17:52;;;;;;;13.33;9.97;;;19.60;99.90;;;;;;4920571;29;20496;-79
2022/10/30 12:20:21;;;;;;;14.73;11.10;;;19.70;99.90;;;;;;4921751;29;20520;-79
2022/10/30 12:22:51;;;;;;;15.40;11.37;;;19.70;99.90;;;;;;4921838;29;20472;-79
2022/10/30 12:25:24;;;;;;;16.13;13.33;;;19.80;99.90;;;;;;4920086;29;20945;-79
2022/10/30 12:27:59;;;;;;;14.03;11.47;;;19.80;99.90;;;;;;4920745;29;20449;-79
2022/10/30 12:30:30;;;;;;;18.40;12.90;;;19.80;99.90;;;;;;4921795;29;20514;-79
2022/10/30 12:33:03;;;;;;;13.10;11.00;;;19.90;99.90;;;;;;4919739;29;20420;-79
2022/10/30 12:35:46;;;;;;;15.53;11.50;;;19.90;99.90;;;;;;4920030;29;20419;-79
2022/10/30 12:38:23;;;;;;;17.23;10.43;;;20.00;99.90;;;;;;4921498;29;20509;-79
2022/10/30 12:41:02;;;;;;;15.53;10.40;;;20.00;99.90;;;;;;4920814;29;20611;-79
2022/10/30 12:43:34;;;;;;;16.03;12.70;;;20.00;99.90;;;;;;4921581;29;20456;-79
2022/10/30 12:46:25;;;;;;;14.93;11.93;;;20.10;99.90;;;;;;4923065;29;20454;-79
2022/10/30 12:49:01;;;;;;;16.47;13.17;;;20.10;99.90;;;;;;4922938;29;20440;-79
2022/10/30 12:51:34;;;;;;;14.37;10.73;;;20.10;99.90;;;;;;4922826;29;20992;-79
2022/10/30 12:54:14;;;;;;;15.73;10.73;;;20.20;99.90;;;;;;4921962;29;20445;-79
2022/10/30 12:56:46;;;;;;;15.10;10.40;;;20.20;99.90;;;;;;4922395;29;20514;-79
2022/10/30 12:59:27;;;;;;;17.70;11.63;;;20.20;99.90;;;;;;4921653;29;20456;-79
2022/10/30 13:01:59;;;;;;;17.60;13.67;;;20.30;99.90;;;;;;4918680;29;20531;-79
2022/10/30 13:04:33;;;;;;;14.17;10.80;;;20.30;99.90;;;;;;4919927;29;20469;-79